Buffalo, OH (43722)

3:58 PM EDT on May 03, 2015 (GMT -0400)
OHDOT | | Change Station
CLOSE
Current Station
Personal Weather Station
Location: Buffalo, OH
Elevation: 807 ft
Nearby Weather Stations

Elev 807 ft 39.91 °N, 81.53 °W | Updated 26 minutes ago

Partly Cloudy
Partly Cloudy
76 °F
Feels Like 77 °F
N
7
Wind Variable Wind from NNW
Gusts 14.0 mph

Today
High -- | Low -- °F
--% Chance of Precip.
Yesterday
High -- | Low -- °F
Precip. -- in
6:24 AM 8:22 PM
Full, 100% visible
Pressure 30.09 in
Visibility 10.0 miles
Clouds Few 8500 ft
Heat Index 77 °F
Dew Point 42 °F
Humidity 30%
Rainfall in
Snow Depth Not available.
UV 7 out of 12
Pollen 11.10 out of 12
Air Quality Not available.
Flu Activity Regional
METAR KZZV 031953Z AUTO VRB04KT 10SM FEW085 24/05 A3010 RMK AO2 SLP190 T02390050 TSNO

More Conditions Fewer Conditions

Pressure 30.09 in
Visibility 10.0 miles
Clouds Few 8500 ft
Heat Index 77 °F
Dew Point 42 °F
Humidity 30%
Rainfall in
Snow Depth Not available.
UV 7 out of 12
Pollen 11.10 out of 12
Air Quality Not available.
Flu Activity Regional
METAR KZZV 031953Z AUTO VRB04KT 10SM FEW085 24/05 A3010 RMK AO2 SLP190 T02390050 TSNO

More Conditions Fewer Conditions

Nepal has a long way to go to dig out and rebuild from a devastating earthquake. We have teamed up with several charities and organizations to make contributing to the relief effort as easy as possible.
How you can help: Portlight Strategies | Red Cross

10-Day Weather Forecast

Almanac

Astronomy

May. 03, 2015 Rise Set
Actual Time
Civil Twilight
Nautical Twilight
Astronomical Twilight
Moon
Length of Visible Light
Length of Day
Tomorrow will be .
, % of the Moon is Illuminated

Today's Extremes

State Highs State Lows

Community

WunderPhotos

Upload Photos

1,818,347 photos uploaded!

WunderBlogs® & News

Nearby

Air Quality

  Air Quality AQ Index Pollutant
Not available.

Snow Depth

Station Depth Elevation

Earthquake Activity

City Distance Mag. Time & Date
Minimum magnitude displayed is 2.5.

Coastal Water Temperatures

Place Temperature

Stations

Nearby Weather Stations

Station Location Temp. Windchill Dew Point Humidity Wind Precip. Elev Updated Type